createdAt,value
2018-11-12T00:02:00.484Z,23.00
2018-11-12T00:04:27.943Z,24.10
2018-11-12T00:06:55.357Z,23.83
2018-11-12T00:09:22.760Z,23.83
2018-11-12T00:11:50.200Z,23.83
2018-11-12T00:14:17.611Z,23.07
2018-11-12T00:16:45.016Z,23.73
2018-11-12T00:19:12.416Z,23.42
2018-11-12T00:21:39.819Z,24.93
2018-11-12T00:24:07.472Z,25.05
2018-11-12T00:26:34.941Z,25.50
2018-11-12T00:29:02.343Z,24.53
2018-11-12T00:31:29.763Z,24.20
2018-11-12T00:33:57.177Z,23.83
2018-11-12T00:36:24.580Z,23.27
2018-11-12T00:38:51.989Z,23.33
2018-11-12T00:41:19.391Z,23.70
2018-11-12T00:43:46.820Z,23.67
2018-11-12T00:46:14.211Z,22.57
2018-11-12T00:48:41.670Z,22.98
2018-11-12T00:51:09.073Z,22.83
2018-11-12T00:53:36.476Z,22.27
2018-11-12T00:56:03.893Z,22.50
2018-11-12T00:58:31.391Z,23.13
2018-11-12T01:00:58.800Z,21.52
2018-11-12T01:03:26.208Z,21.47
2018-11-12T01:05:53.612Z,23.30
2018-11-12T01:08:21.007Z,20.30
2018-11-12T01:10:48.418Z,20.80
2018-11-12T01:13:15.812Z,20.65
2018-11-12T01:15:43.211Z,20.73
2018-11-12T01:18:10.647Z,21.87
2018-11-12T01:20:38.056Z,21.97
2018-11-12T01:23:05.448Z,19.37
2018-11-12T01:25:32.868Z,20.85
2018-11-12T01:28:00.270Z,21.83
2018-11-12T01:30:27.685Z,21.03
2018-11-12T01:32:55.088Z,21.33
2018-11-12T01:35:22.500Z,20.13
2018-11-12T01:37:49.896Z,20.75
2018-11-12T01:40:17.459Z,21.00
2018-11-12T01:42:45.189Z,21.17
2018-11-12T01:45:13.703Z,19.67
2018-11-12T01:47:41.265Z,21.60
2018-11-12T01:50:09.720Z,20.77
2018-11-12T01:52:37.112Z,22.00
2018-11-12T01:55:04.515Z,20.57
2018-11-12T01:57:31.921Z,20.55
2018-11-12T01:59:59.327Z,20.57
2018-11-12T02:02:26.729Z,21.80
2018-11-12T02:04:54.263Z,21.90
2018-11-12T02:07:21.591Z,20.63
2018-11-12T02:09:49.004Z,19.92
2018-11-12T02:12:16.403Z,20.63
2018-11-12T02:14:43.812Z,21.10
2018-11-12T02:17:11.196Z,21.37
2018-11-12T02:19:38.628Z,20.77
2018-11-12T02:22:06.028Z,21.10
2018-11-12T02:24:33.440Z,20.53
2018-11-12T02:27:01.221Z,20.08
2018-11-12T02:29:28.661Z,21.23
2018-11-12T02:31:56.068Z,22.00
2018-11-12T02:34:23.576Z,20.90
2018-11-12T02:36:51.011Z,21.23
2018-11-12T02:39:18.388Z,21.62
2018-11-12T02:41:45.807Z,21.23
2018-11-12T02:44:13.256Z,22.13
2018-11-12T02:46:40.768Z,21.15
2018-11-12T02:49:08.235Z,22.43
2018-11-12T02:51:35.593Z,20.95
2018-11-12T02:54:03.921Z,21.53
2018-11-12T02:56:31.888Z,20.97
2018-11-12T02:58:59.325Z,20.77
2018-11-12T03:01:26.737Z,22.93
2018-11-12T03:03:54.571Z,20.68
2018-11-12T03:06:22.236Z,20.72
2018-11-12T03:08:49.783Z,21.03
2018-11-12T03:11:17.385Z,19.93
2018-11-12T03:13:44.793Z,22.67
2018-11-12T03:16:12.248Z,20.63
2018-11-12T03:18:39.656Z,20.50
2018-11-12T03:21:07.184Z,20.32
2018-11-12T03:23:34.616Z,19.00
2018-11-12T03:26:02.136Z,20.37
2018-11-12T03:28:29.593Z,21.70
2018-11-12T03:30:56.992Z,19.67
2018-11-12T03:33:24.400Z,20.92
2018-11-12T03:35:51.805Z,19.57
2018-11-12T03:38:19.213Z,20.65
2018-11-12T03:40:46.636Z,20.30
2018-11-12T03:43:14.108Z,19.60
2018-11-12T03:45:41.520Z,19.97
2018-11-12T03:48:08.920Z,20.83
2018-11-12T03:50:36.331Z,20.45
2018-11-12T03:53:03.753Z,19.60
2018-11-12T03:55:31.152Z,20.90
2018-11-12T03:57:58.557Z,20.88
2018-11-12T04:00:30.639Z,19.83
2018-11-12T04:02:57.993Z,20.23
2018-11-12T04:05:25.405Z,20.97
2018-11-12T04:07:52.808Z,19.05
2018-11-12T04:10:21.052Z,19.77
2018-11-12T04:12:48.457Z,20.87
2018-11-12T04:15:18.324Z,21.80
2018-11-12T04:17:45.732Z,19.73
2018-11-12T04:20:17.336Z,20.47
2018-11-12T04:22:51.953Z,19.90
2018-11-12T04:25:19.452Z,20.70
2018-11-12T04:27:46.852Z,19.93
2018-11-12T04:30:15.285Z,20.35
2018-11-12T04:32:43.869Z,20.90
2018-11-12T04:35:11.604Z,18.50
2018-11-12T04:37:39.016Z,19.52
2018-11-12T04:40:06.473Z,20.60
2018-11-12T04:42:33.872Z,19.77
2018-11-12T04:45:01.305Z,18.67
2018-11-12T04:47:28.697Z,19.93
2018-11-12T04:49:56.599Z,20.43
2018-11-12T04:52:24.035Z,19.07
2018-11-12T04:54:51.500Z,19.73
2018-11-12T04:57:18.905Z,19.23
2018-11-12T04:59:46.312Z,17.33
2018-11-12T05:02:13.752Z,18.57
2018-11-12T05:04:41.380Z,19.13
2018-11-12T05:07:08.893Z,18.98
2018-11-12T05:09:36.294Z,20.17
2018-11-12T05:12:03.805Z,18.77
2018-11-12T05:14:31.265Z,19.40
2018-11-12T05:16:58.711Z,19.13
2018-11-12T05:19:26.117Z,20.10
2018-11-12T05:21:53.572Z,20.07
2018-11-12T05:24:20.989Z,18.90
2018-11-12T05:26:48.444Z,18.80
2018-11-12T05:29:15.839Z,18.23
2018-11-12T05:31:43.244Z,19.03
2018-11-12T05:34:10.647Z,18.27
2018-11-12T05:36:38.049Z,18.55
2018-11-12T05:39:05.542Z,19.23
2018-11-12T05:41:32.964Z,19.15
2018-11-12T05:44:00.613Z,19.50
2018-11-12T05:46:28.040Z,19.50
2018-11-12T05:48:55.450Z,19.57
2018-11-12T05:51:22.873Z,18.10
2018-11-12T05:53:50.281Z,18.70
2018-11-12T05:56:17.697Z,18.33
2018-11-12T05:58:45.109Z,17.87
2018-11-12T06:01:12.532Z,18.90
2018-11-12T06:03:39.930Z,18.77
2018-11-12T06:06:07.340Z,17.30
2018-11-12T06:08:34.760Z,18.77
2018-11-12T06:11:02.181Z,17.87
2018-11-12T06:13:29.589Z,18.07
2018-11-12T06:15:56.993Z,18.30
2018-11-12T06:18:24.402Z,18.43
2018-11-12T06:20:51.836Z,17.90
2018-11-12T06:23:19.245Z,18.97
2018-11-12T06:25:46.648Z,19.13
2018-11-12T06:28:14.062Z,20.00
2018-11-12T06:30:41.464Z,18.83
2018-11-12T06:33:08.884Z,18.95
2018-11-12T06:35:36.296Z,19.90
2018-11-12T06:38:03.826Z,20.33
2018-11-12T06:40:31.225Z,18.90
2018-11-12T06:42:58.681Z,18.77
2018-11-12T06:45:27.262Z,18.27
2018-11-12T06:47:55.476Z,17.93
2018-11-12T06:50:24.360Z,18.10
2018-11-12T06:52:51.881Z,18.57
2018-11-12T06:55:19.791Z,18.17
2018-11-12T06:57:47.625Z,17.47
2018-11-12T07:00:16.096Z,18.53
2018-11-12T07:02:43.526Z,18.40
2018-11-12T07:05:11.569Z,18.97
2018-11-12T07:07:39.212Z,18.97
2018-11-12T07:10:06.637Z,18.17
2018-11-12T07:12:34.139Z,18.27
2018-11-12T07:15:01.568Z,17.90
2018-11-12T07:17:28.959Z,18.00
2018-11-12T07:19:56.364Z,17.00
2018-11-12T07:22:23.940Z,17.82
2018-11-12T07:24:51.496Z,16.93
2018-11-12T07:27:19.060Z,17.23
2018-11-12T07:29:46.924Z,16.97
2018-11-12T07:32:14.404Z,17.37
2018-11-12T07:34:41.812Z,13.20
2018-11-12T07:37:09.222Z,17.20
2018-11-12T07:39:36.637Z,18.50
2018-11-12T07:42:04.087Z,17.27
2018-11-12T07:44:31.469Z,16.57
2018-11-12T07:46:58.874Z,16.30
2018-11-12T07:49:26.280Z,15.80
2018-11-12T07:51:53.696Z,17.10
2018-11-12T07:54:21.133Z,16.12
2018-11-12T07:56:48.567Z,14.90
2018-11-12T07:59:16.013Z,14.17
2018-11-12T08:01:43.420Z,15.13
2018-11-12T08:04:11.253Z,13.80
2018-11-12T08:06:38.679Z,13.70
2018-11-12T08:09:06.122Z,13.60
2018-11-12T08:11:33.512Z,12.63
2018-11-12T08:14:00.927Z,12.80
2018-11-12T08:16:28.336Z,12.50
2018-11-12T08:18:55.759Z,11.97
2018-11-12T08:21:23.193Z,12.03
2018-11-12T08:23:50.663Z,11.43
2018-11-12T08:26:18.120Z,12.13
2018-11-12T08:28:45.532Z,12.00
2018-11-12T08:31:13.459Z,11.90
2018-11-12T08:33:40.869Z,12.13
2018-11-12T08:36:08.359Z,11.63
2018-11-12T08:38:35.721Z,11.43
2018-11-12T08:41:03.232Z,10.27
2018-11-12T08:43:30.568Z,12.18
2018-11-12T08:45:58.663Z,11.30
2018-11-12T08:48:26.076Z,12.03
2018-11-12T08:50:53.471Z,10.85
2018-11-12T08:53:20.885Z,12.00
2018-11-12T08:55:48.299Z,12.53
2018-11-12T08:58:16.716Z,11.68
2018-11-12T09:00:43.220Z,11.60
2018-11-12T09:03:10.620Z,10.50
2018-11-12T09:05:38.139Z,12.37
2018-11-12T09:08:05.572Z,11.83
2018-11-12T09:10:34.573Z,11.37
2018-11-12T09:13:02.027Z,11.10
2018-11-12T09:15:29.619Z,10.77
2018-11-12T09:17:56.992Z,11.70
2018-11-12T09:20:25.593Z,11.17
2018-11-12T09:22:53.356Z,11.37
2018-11-12T09:25:22.660Z,10.90
2018-11-12T09:27:50.229Z,10.83
2018-11-12T09:30:19.758Z,10.90
2018-11-12T09:32:47.402Z,12.13
2018-11-12T09:35:16.080Z,11.47
2018-11-12T09:37:44.773Z,11.10
2018-11-12T09:40:12.630Z,12.20
2018-11-12T09:42:40.217Z,11.88
2018-11-12T09:45:07.706Z,12.40
2018-11-12T09:47:35.168Z,11.87
2018-11-12T09:50:02.543Z,13.43
2018-11-12T09:52:30.104Z,12.35
2018-11-12T09:54:57.496Z,11.60
2018-11-12T09:57:24.904Z,12.40
2018-11-12T09:59:52.377Z,12.07
2018-11-12T10:02:20.540Z,11.73
2018-11-12T10:04:48.642Z,11.47
2018-11-12T10:07:15.925Z,10.70
2018-11-12T10:09:44.248Z,9.63
2018-11-12T10:12:12.114Z,10.73
2018-11-12T10:14:40.788Z,10.53
2018-11-12T10:17:06.867Z,10.80
2018-11-12T10:19:32.106Z,9.65
2018-11-12T10:21:59.480Z,9.77
2018-11-12T10:24:26.893Z,9.90
2018-11-12T10:26:54.308Z,8.73
2018-11-12T10:29:21.716Z,8.23
2018-11-12T10:31:49.129Z,7.60
2018-11-12T10:34:16.612Z,7.00
2018-11-12T10:36:43.937Z,6.10
2018-11-12T10:39:11.352Z,7.10
2018-11-12T10:41:38.765Z,7.17
2018-11-12T10:44:06.184Z,6.37
2018-11-12T10:46:33.589Z,5.87
2018-11-12T10:49:00.996Z,5.57
2018-11-12T10:51:28.474Z,5.60
2018-11-12T10:53:55.989Z,5.77
2018-11-12T10:56:23.309Z,5.47
2018-11-12T10:58:50.724Z,5.17
2018-11-12T11:01:18.190Z,5.80
2018-11-12T11:03:45.983Z,5.50
2018-11-12T11:06:13.479Z,5.37
2018-11-12T11:08:40.885Z,6.40
2018-11-12T11:11:08.294Z,5.50
2018-11-12T11:13:35.893Z,5.43
2018-11-12T11:16:03.368Z,5.20
2018-11-12T11:18:30.786Z,5.40
2018-11-12T11:20:58.226Z,5.35
2018-11-12T11:23:25.628Z,6.40
2018-11-12T11:25:53.032Z,5.43
2018-11-12T11:28:20.437Z,6.60
2018-11-12T11:30:47.879Z,6.33
2018-11-12T11:33:15.261Z,6.55
2018-11-12T11:35:42.674Z,6.53
2018-11-12T11:38:10.083Z,6.37
2018-11-12T11:40:37.520Z,5.93
2018-11-12T11:43:04.908Z,6.57
2018-11-12T11:45:32.315Z,6.72
2018-11-12T11:47:59.796Z,6.50
2018-11-12T11:50:27.877Z,6.72
2018-11-12T11:52:55.121Z,7.67
2018-11-12T11:55:23.622Z,7.40
2018-11-12T11:57:51.388Z,6.97
2018-11-12T12:00:20.077Z,6.92
2018-11-12T12:02:48.718Z,7.90
2018-11-12T12:05:16.932Z,8.20
2018-11-12T12:07:44.624Z,8.90
2018-11-12T12:10:12.768Z,7.75
2018-11-12T12:12:40.443Z,8.38
2018-11-12T12:15:07.848Z,9.30
2018-11-12T12:17:35.314Z,8.03
2018-11-12T12:20:02.753Z,8.60
2018-11-12T12:22:30.286Z,8.80
2018-11-12T12:24:57.717Z,8.37
2018-11-12T12:27:25.104Z,9.03
2018-11-12T12:29:52.515Z,9.10
2018-11-12T12:32:19.945Z,8.65
2018-11-12T12:34:47.465Z,9.50
2018-11-12T12:37:14.890Z,8.93
2018-11-12T12:39:42.392Z,9.33
2018-11-12T12:42:09.800Z,9.27
2018-11-12T12:44:37.590Z,8.80
2018-11-12T12:47:05.383Z,9.53
2018-11-12T12:49:33.453Z,10.40
2018-11-12T12:52:00.863Z,9.90
2018-11-12T12:54:28.520Z,10.13
2018-11-12T12:56:56.032Z,8.70
2018-11-12T12:59:23.496Z,8.73
2018-11-12T13:01:51.077Z,9.90
2018-11-12T13:04:18.562Z,10.30
2018-11-12T13:06:46.037Z,9.47
2018-11-12T13:09:13.405Z,10.37
2018-11-12T13:11:40.868Z,10.27
2018-11-12T13:14:08.797Z,10.77
2018-11-12T13:16:36.048Z,10.00
2018-11-12T13:19:03.734Z,10.83
2018-11-12T13:21:31.386Z,10.47
2018-11-12T13:23:59.137Z,9.53
2018-11-12T13:26:26.550Z,10.23
2018-11-12T13:28:53.977Z,10.72
2018-11-12T13:31:21.844Z,10.67
2018-11-12T13:33:49.273Z,9.95
2018-11-12T13:36:16.685Z,10.33
2018-11-12T13:38:44.109Z,10.25
2018-11-12T13:41:12.815Z,11.37
2018-11-12T13:43:40.258Z,11.27
2018-11-12T13:46:07.770Z,10.03
2018-11-12T13:48:35.209Z,11.20
2018-11-12T13:51:02.652Z,11.43
2018-11-12T13:53:30.134Z,11.83
2018-11-12T13:55:57.565Z,11.77
2018-11-12T13:58:24.998Z,11.67
2018-11-12T14:00:52.446Z,12.30
2018-11-12T14:03:19.952Z,11.93
2018-11-12T14:05:47.417Z,12.30
2018-11-12T14:08:14.841Z,11.30
2018-11-12T14:10:42.281Z,11.70
2018-11-12T14:13:09.706Z,12.43
2018-11-12T14:15:37.138Z,12.50
2018-11-12T14:18:04.584Z,11.88
2018-11-12T14:20:32.122Z,13.43
2018-11-12T14:22:59.449Z,13.73
2018-11-12T14:25:27.145Z,13.17
2018-11-12T14:27:55.736Z,13.18
2018-11-12T14:30:24.857Z,14.57
2018-11-12T14:32:52.325Z,13.20
2018-11-12T14:35:19.773Z,13.57
2018-11-12T14:37:47.813Z,14.17
2018-11-12T14:40:16.413Z,13.73
2018-11-12T14:42:43.880Z,13.72
2018-11-12T14:45:13.371Z,13.80
2018-11-12T14:47:40.748Z,15.13
2018-11-12T14:50:08.816Z,14.80
2018-11-12T14:52:36.352Z,14.67
2018-11-12T14:55:04.283Z,15.00
2018-11-12T14:57:31.674Z,15.20
2018-11-12T14:59:59.457Z,15.27
2018-11-12T15:02:27.413Z,15.23
2018-11-12T15:04:54.974Z,14.13
2018-11-12T15:07:22.737Z,14.87
2018-11-12T15:09:50.166Z,14.60
2018-11-12T15:12:17.591Z,16.23
2018-11-12T15:14:45.162Z,15.15
2018-11-12T15:17:12.441Z,14.60
2018-11-12T15:19:39.865Z,15.90
2018-11-12T15:22:07.314Z,17.70
2018-11-12T15:24:35.240Z,17.33
2018-11-12T15:27:03.121Z,17.17
2018-11-12T15:29:30.574Z,17.73
2018-11-12T15:31:57.976Z,17.20
2018-11-12T15:34:25.392Z,18.53
2018-11-12T15:36:52.960Z,18.87
2018-11-12T15:39:20.255Z,18.80
2018-11-12T15:41:47.669Z,20.87
2018-11-12T15:44:15.102Z,20.68
2018-11-12T15:46:42.538Z,20.90
2018-11-12T15:49:09.965Z,19.23
2018-11-12T15:51:37.421Z,18.93
2018-11-12T15:54:04.866Z,19.43
2018-11-12T15:56:32.288Z,19.90
2018-11-12T15:58:59.700Z,20.17
2018-11-12T16:01:27.406Z,19.75
2018-11-12T16:03:54.898Z,20.30
2018-11-12T16:06:22.364Z,20.17
2018-11-12T16:08:49.725Z,19.03
2018-11-12T16:11:17.137Z,19.77
2018-11-12T16:13:44.656Z,18.73
2018-11-12T16:16:12.082Z,20.87
2018-11-12T16:18:39.493Z,19.90
2018-11-12T16:21:06.908Z,19.32
2018-11-12T16:23:34.328Z,19.33
2018-11-12T16:26:01.898Z,19.30
2018-11-12T16:28:29.317Z,18.60
2018-11-12T16:30:56.730Z,19.07
2018-11-12T16:33:24.168Z,18.27
2018-11-12T16:35:51.586Z,21.17
2018-11-12T16:38:19.095Z,18.40
2018-11-12T16:40:46.582Z,20.47
2018-11-12T16:43:14.093Z,20.37
2018-11-12T16:45:41.573Z,19.73
2018-11-12T16:48:08.988Z,20.73
2018-11-12T16:50:37.175Z,19.93
2018-11-12T16:53:04.613Z,20.00
2018-11-12T16:55:32.025Z,20.60
2018-11-12T16:57:59.436Z,19.40
2018-11-12T17:00:26.853Z,20.50
2018-11-12T17:02:54.264Z,20.85
2018-11-12T17:05:23.045Z,20.53
2018-11-12T17:07:50.478Z,21.13
2018-11-12T17:10:19.087Z,21.50
2018-11-12T17:12:47.269Z,19.40
2018-11-12T17:15:15.137Z,21.93
2018-11-12T17:17:42.648Z,19.93
2018-11-12T17:20:10.692Z,20.32
2018-11-12T17:22:38.332Z,20.75
2018-11-12T17:25:05.781Z,21.23
2018-11-12T17:27:33.352Z,22.17
2018-11-12T17:30:00.937Z,21.87
2018-11-12T17:32:28.564Z,22.33
2018-11-12T17:34:55.994Z,20.73
2018-11-12T17:37:23.423Z,21.20
2018-11-12T17:39:50.920Z,20.13
2018-11-12T17:42:18.353Z,21.40
2018-11-12T17:44:45.774Z,20.97
2018-11-12T17:47:13.217Z,21.47
2018-11-12T17:49:40.656Z,21.17
2018-11-12T17:52:08.066Z,21.80
2018-11-12T17:54:35.572Z,20.27
2018-11-12T17:57:02.935Z,20.20
2018-11-12T17:59:30.344Z,20.70
2018-11-12T18:01:57.868Z,20.50
2018-11-12T18:04:25.313Z,21.77
2018-11-12T18:06:52.735Z,21.57
2018-11-12T18:09:20.162Z,21.67
2018-11-12T18:11:47.582Z,21.63
2018-11-12T18:14:15.025Z,21.27
2018-11-12T18:16:42.512Z,22.30
2018-11-12T18:19:09.984Z,22.80
2018-11-12T18:21:37.545Z,21.50
2018-11-12T18:24:04.964Z,21.20
2018-11-12T18:26:32.387Z,22.23
2018-11-12T18:28:59.987Z,24.43
2018-11-12T18:31:27.493Z,21.50
2018-11-12T18:33:54.808Z,23.10
2018-11-12T18:36:22.267Z,20.53
2018-11-12T18:38:49.748Z,23.37
2018-11-12T18:41:17.188Z,22.13
2018-11-12T18:43:44.705Z,20.63
2018-11-12T18:46:12.041Z,21.87
2018-11-12T18:48:39.524Z,22.90
2018-11-12T18:51:06.934Z,21.67
2018-11-12T18:53:34.345Z,22.50
2018-11-12T18:56:01.821Z,23.43
2018-11-12T18:58:29.894Z,20.95
2018-11-12T19:00:57.309Z,21.73
2018-11-12T19:03:24.724Z,21.83
2018-11-12T19:05:52.150Z,21.15
2018-11-12T19:08:19.588Z,21.57
2018-11-12T19:10:47.054Z,21.55
2018-11-12T19:13:14.433Z,22.23
2018-11-12T19:15:41.916Z,20.47
2018-11-12T19:18:10.771Z,20.50
2018-11-12T19:20:38.185Z,20.30
2018-11-12T19:23:05.606Z,20.20
2018-11-12T19:25:33.036Z,21.15
2018-11-12T19:28:00.476Z,19.97
2018-11-12T19:30:28.698Z,21.00
2018-11-12T19:32:56.150Z,21.00
2018-11-12T19:35:25.054Z,20.40
2018-11-12T19:37:52.470Z,20.47
2018-11-12T19:40:21.155Z,19.87
2018-11-12T19:42:49.556Z,19.90
2018-11-12T19:45:17.228Z,20.93
2018-11-12T19:47:44.649Z,20.30
2018-11-12T19:50:14.193Z,21.90
2018-11-12T19:52:42.778Z,20.80
2018-11-12T19:55:10.230Z,22.23
2018-11-12T19:57:37.636Z,19.63
2018-11-12T20:00:05.074Z,20.88
2018-11-12T20:02:33.200Z,21.10
2018-11-12T20:05:00.624Z,20.03
2018-11-12T20:07:28.033Z,21.30
2018-11-12T20:09:55.498Z,19.47
2018-11-12T20:12:22.964Z,20.23
2018-11-12T20:14:50.437Z,20.10
2018-11-12T20:17:18.090Z,19.40
2018-11-12T20:19:45.548Z,19.80
2018-11-12T20:22:13.071Z,19.63
2018-11-12T20:24:40.508Z,21.37
2018-11-12T20:27:07.920Z,20.40
2018-11-12T20:29:35.387Z,19.25
2018-11-12T20:32:02.883Z,19.50
2018-11-12T20:34:30.318Z,20.30
2018-11-12T20:36:57.708Z,19.23
2018-11-12T20:39:25.109Z,19.53
2018-11-12T20:41:52.520Z,20.80
2018-11-12T20:44:19.937Z,20.60
2018-11-12T20:46:47.351Z,20.17
2018-11-12T20:49:14.781Z,20.93
2018-11-12T20:51:42.293Z,19.23
2018-11-12T20:54:09.716Z,20.10
2018-11-12T20:56:37.138Z,19.67
2018-11-12T20:59:04.552Z,20.20
2018-11-12T21:01:31.972Z,20.17
2018-11-12T21:03:59.397Z,21.20
2018-11-12T21:06:26.929Z,20.65
2018-11-12T21:08:54.417Z,20.33
2018-11-12T21:11:21.905Z,19.27
2018-11-12T21:13:49.260Z,21.63
2018-11-12T21:16:16.710Z,21.00
2018-11-12T21:18:44.101Z,19.57
2018-11-12T21:21:11.568Z,20.67
2018-11-12T21:23:39.042Z,20.08
2018-11-12T21:26:06.488Z,19.73
2018-11-12T21:28:33.919Z,19.97
2018-11-12T21:31:01.342Z,19.13
2018-11-12T21:33:28.753Z,19.47
2018-11-12T21:35:56.168Z,18.15
2018-11-12T21:38:23.585Z,18.00
2018-11-12T21:40:50.999Z,18.23
2018-11-12T21:43:18.514Z,17.80
2018-11-12T21:45:45.954Z,18.57
2018-11-12T21:48:13.412Z,18.42
2018-11-12T21:50:40.829Z,18.10
2018-11-12T21:53:08.240Z,18.00
2018-11-12T21:55:35.678Z,16.95
2018-11-12T21:58:03.109Z,19.20
2018-11-12T22:00:30.537Z,17.75
2018-11-12T22:03:00.229Z,16.53
2018-11-12T22:05:28.446Z,17.47
2018-11-12T22:07:55.856Z,16.97
2018-11-12T22:10:23.281Z,16.97
2018-11-12T22:12:51.433Z,18.48
2018-11-12T22:15:18.852Z,16.70
2018-11-12T22:17:46.272Z,17.37
2018-11-12T22:20:14.940Z,18.30
2018-11-12T22:22:42.904Z,18.12
2018-11-12T22:25:12.032Z,18.37
2018-11-12T22:27:40.257Z,17.60
2018-11-12T22:30:07.605Z,18.30
2018-11-12T22:32:35.013Z,18.93
2018-11-12T22:35:02.431Z,18.90
2018-11-12T22:37:29.920Z,18.53
2018-11-12T22:39:57.274Z,17.45
2018-11-12T22:42:24.695Z,17.07
2018-11-12T22:44:52.629Z,17.43
2018-11-12T22:47:20.041Z,18.70
2018-11-12T22:49:47.525Z,17.02
2018-11-12T22:52:14.983Z,18.23
2018-11-12T22:54:42.430Z,17.87
2018-11-12T22:57:09.866Z,17.53
2018-11-12T22:59:37.476Z,17.17
2018-11-12T23:02:04.881Z,16.90
2018-11-12T23:04:32.998Z,16.90
2018-11-12T23:07:00.408Z,16.35
2018-11-12T23:09:27.816Z,16.20
2018-11-12T23:11:55.220Z,16.83
2018-11-12T23:14:22.652Z,16.57
2018-11-12T23:16:50.057Z,17.53
2018-11-12T23:19:17.456Z,16.90
2018-11-12T23:21:44.877Z,16.33
2018-11-12T23:24:12.293Z,17.35
2018-11-12T23:26:39.706Z,18.07
2018-11-12T23:29:07.333Z,16.67
2018-11-12T23:31:34.815Z,15.90
2018-11-12T23:34:02.264Z,16.80
2018-11-12T23:36:29.729Z,17.57
2018-11-12T23:38:57.147Z,16.53
2018-11-12T23:41:24.569Z,17.43
2018-11-12T23:43:52.003Z,17.30
2018-11-12T23:46:19.457Z,16.40
2018-11-12T23:48:46.870Z,17.77
2018-11-12T23:51:14.383Z,15.80
2018-11-12T23:53:41.864Z,15.73
2018-11-12T23:56:09.292Z,17.07
2018-11-12T23:58:36.704Z,18.17
